• Join FlightAware (Why Join?)
  • Login
  • US Flag 
05:09AM EDT


 

Airport Tracker/Info


-or-


 

Live Flight TrackerFlight Track Log ✈ N937DL ✈ 21-May-2012 ✈ KATL - KSTL

Flight Track Log - Related Links

Times and Time Zones

All times are in EDT time to prevent confusion due to time zone crossing. See the N937DL flight status page for this flight to view local times or setup timezone preferences in your user account.

Time Position Orientation Groundspeed Altitude Reporting Facility
EDT Latitude Longitude Course Direction KTS MPH feet Rate Location/Type
06:47PM 33.6500 -84.4667 284° West 177 204 2,300  Level Atlanta TRACON
06:48PM 33.6667 -84.5500 284° West 247 284 4,300 2,520 Climbing Atlanta TRACON
06:49PM 33.6833 -84.6333 287° West 269 310 7,400 2,280 Climbing Atlanta TRACON
06:51PM 33.7333 -84.8356 288° West 303 349 11,700 2,220 Climbing Atlanta Center
06:52PM 33.7617 -84.9408 284° West 322 371 14,300 2,460 Climbing Atlanta Center
06:53PM 33.7858 -85.0536 283° West 339 390 16,700 2,100 Climbing Atlanta Center
06:54PM 33.8078 -85.1689 284° West 352 405 18,500 1,320 Climbing Atlanta Center
06:55PM 33.8339 -85.2967 281° West 380 437 19,400 1,200 Climbing Atlanta Center
06:56PM 33.8572 -85.4372 284° West 419 482 21,000 1,020 Climbing Atlanta Center
06:57PM 33.8831 -85.5603 283° West 401 461 21,500 960 Climbing Atlanta Center
06:58PM 33.9064 -85.6833 281° West 392 451 23,000 720 Climbing Atlanta Center
06:59PM 33.9258 -85.7989 281° West 384 442 23,000 420 Level Atlanta Center
07:00PM 33.9486 -85.9369 283° West 384 442 23,900 780 Climbing Atlanta Center
07:01PM 33.9756 -86.0778 289° West 408 470 24,600 1,020 Climbing Atlanta Center
07:02PM 34.0150 -86.2192 288° West 432 497 26,000 1,560 Climbing Atlanta Center
07:03PM 34.0503 -86.3478 288° West 445 512 27,800 1,740 Climbing Atlanta Center
07:04PM 34.0872 -86.4869 289° West 445 512 29,500 1,080 Climbing Atlanta Center
07:05PM 34.1281 -86.6286 289° West 440 506 30,000 240 Climbing Atlanta Center
07:06PM 34.1669 -86.7678 288° West 440 506 30,000  Level Atlanta Center
07:08PM 34.2156 -86.9511 289° West 460 529 30,000  Level Memphis Center
07:09PM 34.2547 -87.0853 289° West 461 531 30,000  Level Memphis Center
07:10PM 34.2844 -87.1897 289° West 430 495 30,000  Level Memphis Center
07:11PM 34.3325 -87.3567 291° West 430 495 30,000 300 Level Memphis Center
07:12PM 34.3756 -87.4958 293° West 441 507 30,700 840 Climbing Memphis Center
07:13PM 34.4225 -87.6328 304° West 446 513 31,800 600 Climbing Memphis Center
07:14PM 34.4853 -87.7442 304° West 441 507 32,000 60 Climbing Memphis Center
07:15PM 34.5547 -87.8681 320° Northwest 447 514 32,000  Level Memphis Center
07:16PM 34.6483 -87.9639 334° Northwest 442 509 32,000  Level Memphis Center
07:18PM 34.8844 -88.1014 331° Northwest 459 528 32,000  Level Memphis Center
07:19PM 34.9964 -88.1769 333° Northwest 467 537 32,000  Level Memphis Center
07:20PM 35.1103 -88.2478 334° Northwest 467 537 32,000  Level Memphis Center
07:21PM 35.2261 -88.3158 333° Northwest 462 532 32,000  Level Memphis Center
07:22PM 35.3422 -88.3869 334° Northwest 462 532 32,000  Level Memphis Center
07:23PM 35.4536 -88.4531 334° Northwest 456 525 32,000  Level Memphis Center
07:24PM 35.5717 -88.5244 332° Northwest 456 525 32,000  Level Memphis Center
07:25PM 35.6853 -88.5986 334° Northwest 456 525 32,000  Level Memphis Center
07:26PM 35.8031 -88.6703 333° Northwest 456 525 32,000  Level Memphis Center
07:27PM 35.9186 -88.7422 333° Northwest 463 533 32,000  Level Memphis Center
07:28PM 36.0342 -88.8144 333° Northwest 463 533 32,000  Level Memphis Center
07:29PM 36.1497 -88.8867 333° Northwest 458 527 32,000  Level Memphis Center
07:30PM 36.2653 -88.9592 334° Northwest 458 527 32,000  Level Memphis Center
07:31PM 36.3808 -89.0294 333° Northwest 458 527 32,000  Level Memphis Center
07:32PM 36.4983 -89.1025 333° Northwest 458 527 32,000  Level Memphis Center
07:33PM 36.6242 -89.1831 332° Northwest 458 527 32,000  Level Memphis Center
07:34PM 36.7353 -89.2567 332° Northwest 453 521 32,000  Level Memphis Center
07:35PM 36.8464 -89.3303 333° Northwest 453 521 32,000  Level Memphis Center
07:36PM 36.9572 -89.4014 333° Northwest 453 521 32,000 -1,620 Level Memphis Center
07:38PM 37.1883 -89.5472 335° Northwest 444 511 27,000 -1,920 Descending Kansas City Center
07:39PM 37.2994 -89.6131 336° Northwest 444 511 26,000 -540 Descending Kansas City Center
07:40PM 37.4106 -89.6739 337° Northwest 439 505 26,000 -900 Level Kansas City Center
07:41PM 37.5236 -89.7347 337° Northwest 434 499 24,200 -2,520 Descending Kansas City Center
07:42PM 37.6300 -89.7911 336° Northwest 422 486 21,000 -2,700 Descending Kansas City Center
07:43PM 37.7408 -89.8522 336° Northwest 408 470 18,900 -2,160 Descending Kansas City Center
07:44PM 37.8261 -89.8997 North 379 436 16,700 -2,280 Descending Kansas City Center
07:45PM 37.9033 -89.8844 337° Northwest 366 421 14,800 -2,340 Descending FAA TRACON SMA TRACON (SMA)
07:45PM 37.9667 -89.9189 335° Northwest 357 411 13,300 -2,400 Descending FAA TRACON SMA TRACON (SMA)
07:46PM 38.0275 -89.9547 337° Northwest 347 399 11,700 -1,800 Descending FAA TRACON SMA TRACON (SMA)
07:47PM 38.0806 -89.9833 334° Northwest 335 386 10,900 -540 Descending FAA TRACON SMA TRACON (SMA)
07:47PM 38.1319 -90.0150 336° Northwest 289 333 11,000 60 Climbing FAA TRACON SMA TRACON (SMA)
07:48PM 38.1814 -90.0428 339° North 282 325 11,000 -120 Level FAA TRACON SMA TRACON (SMA)
07:49PM 38.2264 -90.0653 351° North 282 325 10,900  Descending FAA TRACON SMA TRACON (SMA)
07:49PM 38.2797 -90.0761 353° North 282 325 11,000 60 Climbing FAA TRACON SMA TRACON (SMA)
07:50PM 38.3319 -90.0844 355° North 271 312 11,000 -720 Level FAA TRACON SMA TRACON (SMA)
07:51PM 38.3775 -90.0900 350° North 265 305 10,100 -1,860 Descending FAA TRACON SMA TRACON (SMA)
07:51PM 38.4300 -90.1017 352° North 246 283 8,500 -1,920 Descending FAA TRACON SMA TRACON (SMA)
07:52PM 38.4686 -90.1086 351° North 228 262 7,600 -1,500 Descending FAA TRACON SMA TRACON (SMA)
07:53PM 38.5058 -90.1164 346° North 219 252 6,600 -1,620 Descending FAA TRACON SMA TRACON (SMA)
07:53PM 38.5453 -90.1289 345° North 210 242 5,500 -1,860 Descending FAA TRACON SMA TRACON (SMA)
07:54PM 38.5842 -90.1419 343° North 207 238 4,200 -1,440 Descending FAA TRACON SMA TRACON (SMA)
07:55PM 38.6172 -90.1553 341° North 203 234 3,600 -1,080 Descending FAA TRACON SMA TRACON (SMA)
07:55PM 38.6525 -90.1708 332° Northwest 192 221 2,800 -960 Descending FAA TRACON SMA TRACON (SMA)
07:56PM 38.6847 -90.1931 308° West 190 219 2,400 -840 Descending FAA TRACON SMA TRACON (SMA)
07:57PM 38.7042 -90.2253 303° West 186 214 1,700 -1,020 Descending FAA TRACON SMA TRACON (SMA)
07:57PM 38.7203 -90.2575 302° West 150 173 1,100 -840 Descending FAA TRACON SMA TRACON (SMA)
07:58PM 38.7319 -90.2811 302° West 145 167 600 -780 Descending FAA TRACON SMA TRACON (SMA)